Stadiongracht — PDBY — position and weather

sailwx.info

Track history (hours):
 
Tides and Currents Weather Stations Pressure Air Temp Water Temp Dewpoint Dewpoint Depression Visibility Wind Speed Wind Dir Waves Ship Positions

Stadiongracht

Last reported at 2019-Aug-22 13:26 UTC. Time now 2019-Aug-22 15:26 UTC.
Position N 29°13' W 094°33'.

Length 173 m; beam 26 m.

Type: Cargo ship. MMSI: 246466000.

Date/timePositionNaut miles runAvg speedWind from/ knotsBaromVisibWave heightAir tempDewpointWater temp
2019-Aug-22 13:26N 29°13' W 094°33'7 9.2
2019-Aug-22 12:39N 29°19' W 094°38'110.0
2019-Aug-22 12:30N 29°19' W 094°40'713.3
2019-Aug-22 12:00N 29°21' W 094°47'713.4
2019-Aug-22 11:30N 29°27' W 094°51'612.1
2019-Aug-22 11:00N 29°32' W 094°54'612.6
2019-Aug-22 10:30N 29°38' W 094°58'510.4
2019-Aug-22 10:00N 29°42' W 095°01'4 8.1
2019-Aug-22 09:27N 29°45' W 095°04'4 6.5
2019-Aug-22 08:48N 29°44' W 095°09'6 0.2
2019-Aug-21 07:01N 29°44' W 095°16'0 0.0
2019-Aug-21 06:49N 29°44' W 095°16'0 0.0
2019-Aug-21 05:04N 29°44' W 095°16'0 0.0
2019-Aug-21 04:16N 29°44' W 095°16'  
2019-Aug-17 02:58N 29°44' W 095°09'2 0.1
2019-Aug-16 04:15N 29°45' W 095°06'0 0.0
2019-Aug-16 03:27N 29°45' W 095°06'0 0.0
2019-Aug-16 01:51N 29°45' W 095°06'5 0.6
2019-Aug-15 18:06N 29°43' W 095°01'3 9.7
2019-Aug-15 17:47N 29°41' W 094°59'411.8
2019-Aug-15 17:29N 29°37' W 094°58'611.7
2019-Aug-15 17:00N 29°33' W 094°54'713.1
2019-Aug-15 16:26N 29°26' W 094°50'612.1
2019-Aug-15 15:56N 29°21' W 094°47'812.4
2019-Aug-15 15:18N 29°19' W 094°38'311.2
2019-Aug-15 15:00N 29°17' W 094°35'3 4.5
2019-Aug-15 14:22N 29°15' W 094°32'810.8
2019-Aug-15 13:40N 29°10' W 094°25'210.3
2019-Aug-15 13:30N 29°09' W 094°25'1611.3
2019-Aug-15 12:04N 28°59' W 094°40'113.2
2019-Aug-15 11:59N 28°59' W 094°41'1814.1
2019-Aug-15 10:44N 28°49' W 094°58'414.4
2019-Aug-15 10:28N 28°47' W 095°02'  
Track history (hours):
 
Tides and Currents Weather Stations Pressure Air Temp Water Temp Dewpoint Dewpoint Depression Visibility Wind Speed Wind Dir Waves Ship Positions

Stadiongracht

Last reported at 2019-Aug-22 13:26 UTC. Time now 2019-Aug-22 15:26 UTC.
Position N 29°13' W 094°33'.

Length 173 m; beam 26 m.

Type: Cargo ship. MMSI: 246466000.

Date/timePositionNaut miles runAvg speedWind from/ knotsBaromVisibWave heightAir tempDewpointWater temp
2019-Aug-22 13:26N 29°13' W 094°33'7 9.2
2019-Aug-22 12:39N 29°19' W 094°38'110.0
2019-Aug-22 12:30N 29°19' W 094°40'713.3
2019-Aug-22 12:00N 29°21' W 094°47'713.4
2019-Aug-22 11:30N 29°27' W 094°51'612.1
2019-Aug-22 11:00N 29°32' W 094°54'612.6
2019-Aug-22 10:30N 29°38' W 094°58'510.4
2019-Aug-22 10:00N 29°42' W 095°01'4 8.1
2019-Aug-22 09:27N 29°45' W 095°04'4 6.5
2019-Aug-22 08:48N 29°44' W 095°09'6 0.2
2019-Aug-21 07:01N 29°44' W 095°16'0 0.0
2019-Aug-21 06:49N 29°44' W 095°16'0 0.0
2019-Aug-21 05:04N 29°44' W 095°16'0 0.0
2019-Aug-21 04:16N 29°44' W 095°16'  
2019-Aug-17 02:58N 29°44' W 095°09'2 0.1
2019-Aug-16 04:15N 29°45' W 095°06'0 0.0
2019-Aug-16 03:27N 29°45' W 095°06'0 0.0
2019-Aug-16 01:51N 29°45' W 095°06'5 0.6
2019-Aug-15 18:06N 29°43' W 095°01'3 9.7
2019-Aug-15 17:47N 29°41' W 094°59'411.8
2019-Aug-15 17:29N 29°37' W 094°58'611.7
2019-Aug-15 17:00N 29°33' W 094°54'713.1
2019-Aug-15 16:26N 29°26' W 094°50'612.1
2019-Aug-15 15:56N 29°21' W 094°47'812.4
2019-Aug-15 15:18N 29°19' W 094°38'311.2
2019-Aug-15 15:00N 29°17' W 094°35'3 4.5
2019-Aug-15 14:22N 29°15' W 094°32'810.8
2019-Aug-15 13:40N 29°10' W 094°25'210.3
2019-Aug-15 13:30N 29°09' W 094°25'1611.3
2019-Aug-15 12:04N 28°59' W 094°40'113.2
2019-Aug-15 11:59N 28°59' W 094°41'1814.1
2019-Aug-15 10:44N 28°49' W 094°58'414.4
2019-Aug-15 10:28N 28°47' W 095°02'  

Dump ship's entire track history